createdAt,value
2022-09-24T00:01:53.624Z,15.60
2022-09-24T00:04:32.060Z,15.60
2022-09-24T00:07:02.752Z,15.60
2022-09-24T00:09:38.877Z,15.60
2022-09-24T00:12:16.309Z,15.60
2022-09-24T00:14:50.749Z,15.60
2022-09-24T00:17:22.130Z,15.70
2022-09-24T00:19:52.430Z,15.60
2022-09-24T00:22:25.569Z,15.60
2022-09-24T00:25:12.062Z,15.60
2022-09-24T00:27:44.516Z,15.60
2022-09-24T00:30:15.316Z,15.60
2022-09-24T00:32:45.283Z,15.50
2022-09-24T00:35:15.643Z,15.50
2022-09-24T00:37:45.130Z,15.50
2022-09-24T00:40:15.843Z,15.40
2022-09-24T00:42:54.502Z,15.40
2022-09-24T00:45:22.979Z,15.40
2022-09-24T00:47:51.238Z,15.40
2022-09-24T00:50:20.838Z,15.40
2022-09-24T00:52:52.451Z,15.40
2022-09-24T00:55:25.008Z,15.30
2022-09-24T00:57:57.750Z,15.30
2022-09-24T01:00:26.112Z,15.30
2022-09-24T01:02:56.463Z,15.30
2022-09-24T01:05:27.858Z,15.30
2022-09-24T01:07:57.381Z,15.30
2022-09-24T01:10:48.208Z,15.30
2022-09-24T01:13:28.966Z,15.30
2022-09-24T01:16:00.464Z,15.30
2022-09-24T01:18:34.976Z,15.30
2022-09-24T01:21:29.528Z,15.20
2022-09-24T01:24:04.708Z,15.20
2022-09-24T01:26:57.918Z,15.20
2022-09-24T01:29:42.053Z,15.20
2022-09-24T01:32:21.166Z,15.20
2022-09-24T01:34:50.801Z,15.20
2022-09-24T01:37:20.760Z,15.20
2022-09-24T01:39:50.470Z,15.20
2022-09-24T01:42:32.863Z,15.20
2022-09-24T01:45:02.632Z,15.20
2022-09-24T01:47:35.322Z,15.20
2022-09-24T01:50:10.607Z,15.10
2022-09-24T01:52:43.755Z,15.20
2022-09-24T01:55:13.470Z,15.10
2022-09-24T01:57:43.524Z,15.20
2022-09-24T02:00:21.334Z,15.20
2022-09-24T02:02:51.120Z,15.20
2022-09-24T02:05:24.888Z,15.20
2022-09-24T02:07:58.287Z,15.20
2022-09-24T02:10:29.004Z,15.20
2022-09-24T02:12:58.939Z,15.10
2022-09-24T02:15:33.402Z,15.10
2022-09-24T02:18:05.775Z,15.10
2022-09-24T02:20:34.167Z,15.10
2022-09-24T02:23:02.599Z,15.10
2022-09-24T02:25:32.969Z,15.10
2022-09-24T02:28:05.559Z,15.10
2022-09-24T02:30:40.061Z,15.10
2022-09-24T02:33:29.398Z,15.10
2022-09-24T02:35:57.043Z,15.10
2022-09-24T02:38:25.555Z,15.10
2022-09-24T02:40:54.738Z,15.10
2022-09-24T02:43:26.175Z,15.10
2022-09-24T02:46:14.195Z,15.10
2022-09-24T02:48:44.913Z,15.00
2022-09-24T02:51:13.218Z,15.00
2022-09-24T02:53:41.560Z,15.10
2022-09-24T02:56:10.001Z,15.10
2022-09-24T02:58:40.856Z,15.10
2022-09-24T03:01:10.599Z,15.10
2022-09-24T03:03:40.041Z,15.10
2022-09-24T03:06:08.811Z,15.10
2022-09-24T03:08:37.127Z,15.10
2022-09-24T03:11:05.425Z,15.10
2022-09-24T03:13:36.815Z,15.10
2022-09-24T03:16:05.261Z,15.20
2022-09-24T03:18:36.933Z,15.10
2022-09-24T03:21:06.157Z,15.20
2022-09-24T03:23:34.460Z,15.20
2022-09-24T03:26:05.503Z,15.20
2022-09-24T03:28:33.779Z,15.20
2022-09-24T03:31:03.232Z,15.20
2022-09-24T03:33:32.704Z,15.20
2022-09-24T03:36:03.395Z,15.20
2022-09-24T03:38:33.846Z,15.20
2022-09-24T03:41:02.110Z,15.20
2022-09-24T03:43:30.343Z,15.20
2022-09-24T03:45:58.899Z,15.20
2022-09-24T03:48:30.039Z,15.20
2022-09-24T03:50:58.316Z,15.20
2022-09-24T03:53:28.079Z,15.10
2022-09-24T03:55:59.774Z,15.10
2022-09-24T03:58:28.139Z,15.20
2022-09-24T04:00:57.271Z,15.10
2022-09-24T04:03:26.321Z,15.10
2022-09-24T04:05:54.616Z,15.10
2022-09-24T04:08:23.621Z,15.10
2022-09-24T04:10:53.796Z,15.10
2022-09-24T04:13:25.113Z,15.10
2022-09-24T04:15:53.862Z,15.10
2022-09-24T04:18:22.416Z,15.10
2022-09-24T04:20:50.760Z,15.10
2022-09-24T04:23:18.899Z,15.10
2022-09-24T04:25:47.137Z,15.10
2022-09-24T04:28:19.449Z,15.10
2022-09-24T04:30:48.274Z,15.10
2022-09-24T04:33:16.612Z,15.10
2022-09-24T04:35:46.630Z,15.10
2022-09-24T04:38:14.988Z,15.10
2022-09-24T04:40:47.428Z,15.00
2022-09-24T04:43:21.060Z,15.00
2022-09-24T04:45:49.341Z,15.00
2022-09-24T04:48:17.591Z,15.00
2022-09-24T04:50:49.134Z,15.00
2022-09-24T04:53:21.436Z,15.00
2022-09-24T04:55:49.832Z,15.00
2022-09-24T04:58:19.585Z,15.00
2022-09-24T05:00:47.898Z,15.00
2022-09-24T05:03:16.910Z,15.00
2022-09-24T05:05:45.575Z,15.00
2022-09-24T05:08:17.228Z,15.00
2022-09-24T05:10:45.605Z,15.00
2022-09-24T05:13:14.408Z,15.10
2022-09-24T05:15:45.692Z,15.10
2022-09-24T05:18:16.112Z,15.10
2022-09-24T05:20:45.225Z,15.10
2022-09-24T05:23:13.937Z,15.10
2022-09-24T05:25:58.687Z,15.10
2022-09-24T05:28:37.788Z,15.10
2022-09-24T05:31:14.011Z,15.10
2022-09-24T05:33:42.395Z,15.10
2022-09-24T05:36:10.568Z,15.10
2022-09-24T05:38:41.595Z,15.10
2022-09-24T05:41:17.083Z,15.10
2022-09-24T05:43:45.362Z,15.10
2022-09-24T05:46:20.372Z,15.10
2022-09-24T05:48:49.723Z,15.10
2022-09-24T05:51:20.992Z,15.10
2022-09-24T05:53:50.429Z,15.10
2022-09-24T05:56:18.611Z,15.10
2022-09-24T05:58:49.491Z,15.20
2022-09-24T06:01:19.141Z,15.20
2022-09-24T06:03:47.921Z,15.10
2022-09-24T06:06:21.349Z,15.10
2022-09-24T06:08:51.660Z,15.20
2022-09-24T06:11:24.228Z,15.20
2022-09-24T06:14:03.284Z,15.20
2022-09-24T06:16:48.530Z,15.20
2022-09-24T06:19:16.935Z,15.10
2022-09-24T06:21:45.282Z,15.10
2022-09-24T06:24:13.683Z,15.10
2022-09-24T06:26:42.184Z,15.10
2022-09-24T06:29:10.884Z,15.10
2022-09-24T06:31:41.104Z,15.10
2022-09-24T06:34:09.774Z,15.10
2022-09-24T06:36:44.433Z,15.10
2022-09-24T06:39:13.042Z,15.10
2022-09-24T06:41:41.528Z,15.00
2022-09-24T06:44:10.021Z,15.00
2022-09-24T06:46:38.619Z,15.00
2022-09-24T06:49:11.698Z,15.00
2022-09-24T06:51:40.738Z,15.00
2022-09-24T06:54:09.323Z,15.00
2022-09-24T06:56:37.650Z,15.00
2022-09-24T06:59:06.794Z,15.00
2022-09-24T07:01:35.649Z,15.00
2022-09-24T07:04:04.430Z,15.00
2022-09-24T07:06:49.514Z,15.00
2022-09-24T07:09:17.819Z,15.00
2022-09-24T07:11:46.771Z,15.00
2022-09-24T07:14:15.653Z,15.00
2022-09-24T07:16:44.199Z,15.00
2022-09-24T07:19:14.105Z,15.00
2022-09-24T07:21:45.388Z,15.00
2022-09-24T07:24:14.418Z,15.00
2022-09-24T07:26:42.968Z,15.00
2022-09-24T07:29:11.604Z,15.00
2022-09-24T07:31:39.966Z,15.00
2022-09-24T07:34:09.285Z,15.00
2022-09-24T07:36:37.816Z,15.00
2022-09-24T07:39:07.835Z,15.00
2022-09-24T07:41:42.576Z,15.10
2022-09-24T07:44:11.060Z,15.10
2022-09-24T07:46:39.565Z,15.00
2022-09-24T07:49:08.079Z,15.00
2022-09-24T07:51:56.051Z,15.10
2022-09-24T07:54:26.473Z,15.10
2022-09-24T07:56:55.428Z,15.10
2022-09-24T07:59:25.060Z,15.10
2022-09-24T08:01:54.550Z,15.10
2022-09-24T08:04:22.961Z,15.10
2022-09-24T08:06:52.234Z,15.10
2022-09-24T08:09:24.997Z,15.10
2022-09-24T08:11:55.005Z,15.10
2022-09-24T08:14:23.676Z,15.10
2022-09-24T08:16:52.197Z,15.10
2022-09-24T08:19:20.665Z,15.10
2022-09-24T08:21:49.515Z,15.10
2022-09-24T08:24:19.026Z,15.10
2022-09-24T08:26:47.606Z,15.10
2022-09-24T08:29:19.339Z,15.10
2022-09-24T08:31:52.418Z,15.20
2022-09-24T08:34:23.943Z,15.20
2022-09-24T08:36:52.309Z,15.30
2022-09-24T08:39:25.342Z,15.30
2022-09-24T08:42:01.413Z,15.30
2022-09-24T08:44:50.486Z,15.40
2022-09-24T08:47:37.092Z,15.40
2022-09-24T08:50:10.748Z,15.40
2022-09-24T08:52:50.707Z,15.40
2022-09-24T08:55:24.575Z,15.40
2022-09-24T08:58:00.789Z,15.40
2022-09-24T09:00:32.649Z,15.40
2022-09-24T09:03:03.491Z,15.40
2022-09-24T09:05:49.390Z,15.40
2022-09-24T09:08:46.685Z,15.40
2022-09-24T09:11:10.681Z,15.40
2022-09-24T09:13:41.998Z,15.40
2022-09-24T09:16:20.312Z,15.50
2022-09-24T09:19:08.459Z,15.40
2022-09-24T09:21:41.816Z,15.50
2022-09-24T09:25:04.632Z,15.50
2022-09-24T09:27:10.772Z,15.50
2022-09-24T09:29:40.399Z,15.50
2022-09-24T09:32:19.108Z,15.50
2022-09-24T09:34:53.650Z,15.50
2022-09-24T09:37:33.411Z,15.50
2022-09-24T09:40:15.845Z,15.60
2022-09-24T09:42:49.254Z,15.60
2022-09-24T09:45:28.409Z,15.60
2022-09-24T09:48:23.705Z,15.70
2022-09-24T09:50:55.938Z,15.70
2022-09-24T09:53:38.388Z,15.70
2022-09-24T09:56:14.231Z,15.70
2022-09-24T09:58:58.068Z,15.70
2022-09-24T10:01:46.450Z,15.80
2022-09-24T10:04:40.737Z,15.80
2022-09-24T10:07:11.777Z,15.80
2022-09-24T10:09:44.695Z,15.80
2022-09-24T10:12:20.165Z,15.80
2022-09-24T10:15:01.906Z,15.80
2022-09-24T10:17:33.714Z,15.80
2022-09-24T10:20:12.776Z,15.70
2022-09-24T10:22:48.937Z,15.70
2022-09-24T10:25:34.363Z,15.80
2022-09-24T10:28:21.532Z,15.80
2022-09-24T10:31:02.675Z,15.80
2022-09-24T10:33:43.577Z,15.80
2022-09-24T10:43:29.499Z,15.80
2022-09-24T10:46:25.923Z,15.80
2022-09-24T10:52:30.348Z,15.90
2022-09-24T10:55:09.355Z,15.90
2022-09-24T10:57:46.460Z,15.80
2022-09-24T11:00:21.710Z,15.80
2022-09-24T11:03:24.588Z,15.90
2022-09-24T11:05:55.515Z,15.90
2022-09-24T11:08:37.226Z,15.90
2022-09-24T11:11:23.455Z,15.90
2022-09-24T11:13:58.789Z,15.90
2022-09-24T11:16:45.292Z,15.90
2022-09-24T11:19:21.252Z,15.90
2022-09-24T11:22:06.555Z,15.90
2022-09-24T11:24:51.562Z,16.00
2022-09-24T11:27:31.868Z,16.00
2022-09-24T11:30:12.525Z,16.00
2022-09-24T11:32:50.976Z,16.00
2022-09-24T11:35:38.972Z,16.10
2022-09-24T11:38:20.495Z,16.10
2022-09-24T11:41:09.477Z,16.10
2022-09-24T11:43:58.586Z,16.20
2022-09-24T11:46:50.615Z,16.20
2022-09-24T11:49:43.464Z,16.20
2022-09-24T11:52:20.409Z,16.20
2022-09-24T11:55:07.716Z,16.10
2022-09-24T11:57:49.918Z,16.10
2022-09-24T12:00:22.217Z,16.00
2022-09-24T12:02:56.291Z,16.00
2022-09-24T12:05:29.891Z,16.00
2022-09-24T12:08:02.288Z,16.00
2022-09-24T12:10:51.071Z,16.10
2022-09-24T12:13:28.703Z,16.20
2022-09-24T12:16:00.851Z,16.20
2022-09-24T12:18:34.396Z,16.20
2022-09-24T12:21:11.256Z,16.30
2022-09-24T12:23:52.119Z,16.40
2022-09-24T12:26:25.919Z,16.40
2022-09-24T12:29:21.795Z,16.40
2022-09-24T12:32:16.379Z,16.50
2022-09-24T12:35:00.521Z,16.50
2022-09-24T12:37:59.356Z,16.60
2022-09-24T12:40:49.045Z,16.60
2022-09-24T12:43:26.806Z,16.60
2022-09-24T12:46:00.806Z,16.70
2022-09-24T12:48:39.099Z,16.70
2022-09-24T12:51:32.456Z,16.80
2022-09-24T12:54:28.151Z,16.80
2022-09-24T12:57:30.062Z,16.80
2022-09-24T12:59:59.426Z,16.80
2022-09-24T13:02:33.421Z,16.80
2022-09-24T13:05:28.585Z,16.80
2022-09-24T13:08:01.589Z,16.80
2022-09-24T13:10:47.898Z,16.80
2022-09-24T13:13:33.532Z,16.90
2022-09-24T13:16:09.471Z,16.80
2022-09-24T13:18:54.959Z,16.80
2022-09-24T13:21:36.649Z,16.80
2022-09-24T13:24:23.298Z,16.80
2022-09-24T13:26:52.281Z,16.80
2022-09-24T13:29:24.736Z,16.80
2022-09-24T13:31:56.067Z,16.70
2022-09-24T13:34:38.949Z,16.70
2022-09-24T13:37:16.772Z,16.70
2022-09-24T13:40:03.355Z,16.70
2022-09-24T13:43:04.042Z,16.80
2022-09-24T13:45:32.407Z,16.90
2022-09-24T13:48:02.681Z,16.90
2022-09-24T13:50:35.978Z,17.00
2022-09-24T13:53:06.762Z,17.10
2022-09-24T13:55:36.665Z,17.10
2022-09-24T13:58:08.059Z,17.20
2022-09-24T14:00:39.260Z,17.30
2022-09-24T14:03:18.939Z,17.30
2022-09-24T14:05:48.816Z,17.40
2022-09-24T14:08:17.767Z,17.40
2022-09-24T14:10:49.179Z,17.50
2022-09-24T14:13:19.396Z,17.60
2022-09-24T14:15:58.232Z,17.80
2022-09-24T14:18:27.063Z,17.80
2022-09-24T14:21:00.902Z,17.80
2022-09-24T14:23:31.632Z,17.90
2022-09-24T14:26:00.389Z,18.00
2022-09-24T14:28:32.906Z,18.20
2022-09-24T14:31:02.540Z,18.30
2022-09-24T14:33:32.415Z,18.40
2022-09-24T14:36:02.544Z,18.30
2022-09-24T14:38:35.891Z,18.30
2022-09-24T14:41:09.072Z,18.20
2022-09-24T14:43:40.031Z,18.20
2022-09-24T14:46:10.061Z,18.10
2022-09-24T14:48:38.524Z,18.10
2022-09-24T14:54:21.102Z,18.10
2022-09-24T14:56:49.651Z,18.00
2022-09-24T14:59:27.741Z,18.00
2022-09-24T15:02:16.117Z,18.00
2022-09-24T15:04:46.975Z,17.90
2022-09-24T15:07:18.386Z,17.90
2022-09-24T15:09:51.521Z,17.80
2022-09-24T15:12:22.509Z,17.80
2022-09-24T15:14:57.812Z,17.80
2022-09-24T15:17:29.654Z,17.80
2022-09-24T15:19:58.293Z,17.70
2022-09-24T15:22:28.260Z,17.70
2022-09-24T15:25:01.661Z,17.70
2022-09-24T15:27:31.494Z,17.70
2022-09-24T15:30:00.806Z,17.70
2022-09-24T15:32:32.717Z,17.60
2022-09-24T15:35:02.161Z,17.50
2022-09-24T15:37:31.121Z,17.50
2022-09-24T15:40:07.051Z,17.40
2022-09-24T15:42:36.779Z,17.40
2022-09-24T15:45:08.670Z,17.40
2022-09-24T15:47:40.233Z,17.50
2022-09-24T15:50:09.729Z,17.60
2022-09-24T15:52:41.772Z,17.60
2022-09-24T15:55:15.175Z,17.60
2022-09-24T15:57:44.267Z,17.60
2022-09-24T16:00:52.130Z,17.60
2022-09-24T20:18:59.015Z,13.60
